LFRZLFRD

Guest
Details From LFRZ - Saint Nazaire Montoir
To LFRD - Dinard Pleurtuit-St Malo
Flight Number -
Tags generated
Created
Modified
Stats Distance 77 nm / 142 km
Max Altitude 0 ft / 0 m
Waypoints 2
Social Downloads 1
Likes 0
Share VATSIM

Download

Looking for another format? Having issues loading an existing format? Contact us
Advertisement - Login to hide

Notes

Basic altitude profile: - Ascent Rate: 2500ft/min - Ascent Speed: 250kts - Cruise Altitude: 35000ft - Cruise Speed: 420kts - Descent Rate: 1500ft/min - Descent Speed: 250kts Options: - Use NATs: no - Use PACOTS: no - Use low airways: no - Use high airways: no

Route

LFRZ LFRD

ID Type Via Altitude Latitude Longitude Leg Dist Tot Dist Heading (true) Name
O LFRZ APT - 0 ft / 0 m 47.31219˚ -2.14918˚ - 0 nm - Saint Nazaire Montoir
O LFRD APT - 0 ft / 0 m 48.58798˚ -2.07992˚ 76 nm 76 nm 2° / 2° Dinard Pleurtuit-St Malo

Altitude Profile

Advertisement - Login to hide

LFRZ

Details ICAO LFRZ (SNR)
Name Saint Nazaire Montoir
Region France
Timezone Europe/Paris (UTC+1.0)
Stats Elevation 13 ft / 4 m (AMSL)
Location 47.312188° -2.149179°
Runways 1
Magnetic Variation 0.696° W

METAR

LFRZ 160730Z AUTO 30007KT 9999 FEW038 03/01 Q1019 NOSIG

Decode

TAF

TAF LFRZ 160500Z 1606/1706 30005KT 9999 SCT040 TEMPO 1700/1706 4000 RA

Decode

Departure Runways

ID Width Length Bearing (true) Bearing (mag) Surface Threshold Offset Overrun Length
08 148 ft / 45 m 7,872 ft / 2,400 m 73.42° 74.12° Asphalt 500 ft / 152 m 0 ft / 0 m
26 148 ft / 45 m 7,872 ft / 2,400 m 253.44° 254.14° Asphalt 500 ft / 152 m 0 ft / 0 m

LFRD

Details ICAO LFRD (DNR)
Name Dinard Pleurtuit-St Malo
Region France
Timezone Europe/Paris (UTC+1.0)
Stats Elevation 216 ft / 66 m (AMSL)
Location 48.587983° -2.079916°
Runways 2
Magnetic Variation 0.798° W

METAR

LFRD 160730Z AUTO 35010KT 9999 BKN039 BKN052 06/01 Q1019 TEMPO 34015G25KT SHRA BKN020TCU

Decode

TAF

TAF LFRD 160500Z 1606/1706 35012KT 9999 BKN030 TEMPO 1606/1612 34015G25KT 5000 SHRA BKN020TCU BECMG 1618/1621 25012KT TEMPO 1621/1706 5000 RA BKN015 PROB40 TEMPO 1621/1706 3000 RA BKN008 BECMG 1623/1701 34012KT BECMG 1703/1706 VRB04KT

Decode

Destination Runways

ID Width Length Bearing (true) Bearing (mag) Surface Threshold Offset Overrun Length
12 148 ft / 45 m 4,909 ft / 1,496 m 115.13° 115.93° Asphalt 0 ft / 0 m 0 ft / 0 m
17 148 ft / 45 m 7,199 ft / 2,194 m 170.09° 170.89° Asphalt 0 ft / 0 m 0 ft / 0 m
30 148 ft / 45 m 4,909 ft / 1,496 m 295.14° 295.94° Asphalt 669 ft / 204 m 0 ft / 0 m
35 148 ft / 45 m 7,199 ft / 2,194 m 350.10° 350.90° Asphalt 0 ft / 0 m 0 ft / 0 m

Approach Navaids

Runway Type Ident Frequency Range Bearing (true) Bearing (mag) Slope Elevation
35 Localiser DR 110.75 MHz 27 nm / 50 km 350.08° 350.88° - 216 ft / 66 m (AMSL)
35 Glidescope DR 110.75 MHz 27 nm / 50 km 350.08° 350.88° 3.00° 216 ft / 66 m (AMSL)
35 DME DR 110.75 MHz 27 nm / 50 km - - - 216 ft / 66 m (AMSL)